Time;durP1;ratioP1;P1;durP2;ratioP2;P2;SDS_P1;SDS_P2;PMS_P1;PMS_P2;Temp;Humidity;BMP_temperature;BMP_pressure;BME280_temperature;BME280_humidity;BME280_pressure;Samples;Min_cycle;Max_cycle;Signal;HPM_P1;HPM_P2
2023/04/14 00:03:58;;;;;;;14.07;2.25;;;;;;;6.80;93.51;99869.44;8389049;28;20041;-62
2023/04/14 00:07:59;;;;;;;7.22;1.75;;;;;;;6.81;92.86;99871.16;8387511;28;20560;-56
2023/04/14 00:12:00;;;;;;;6.00;1.98;;;;;;;6.59;93.33;99881.19;8392902;28;20040;-61
2023/04/14 00:16:01;;;;;;;7.78;1.80;;;;;;;6.45;93.99;99871.63;8395237;28;20048;-61
2023/04/14 00:20:02;;;;;;;4.13;2.03;;;;;;;6.35;93.96;99873.41;8395386;28;20047;-61
2023/04/14 00:24:03;;;;;;;8.32;2.13;;;;;;;6.14;94.13;99891.31;8425267;27;20043;-61
2023/04/14 00:28:04;;;;;;;5.03;2.08;;;;;;;5.71;96.96;99888.59;8428618;27;20522;-61
2023/04/14 00:32:05;;;;;;;9.52;2.35;;;;;;;5.79;97.01;99896.00;8428510;27;20055;-61
2023/04/14 00:36:06;;;;;;;4.07;2.22;;;;;;;5.93;96.87;99885.03;8428244;27;20051;-56
2023/04/14 00:40:08;;;;;;;4.85;2.03;;;;;;;5.89;95.92;99886.28;8428169;27;20064;-55
2023/04/14 00:44:09;;;;;;;7.93;2.20;;;;;;;5.93;96.34;99882.34;8428154;27;20036;-56
2023/04/14 00:48:10;;;;;;;5.25;2.17;;;;;;;5.86;96.03;99887.34;8428396;27;20126;-55
2023/04/14 00:52:11;;;;;;;8.63;2.40;;;;;;;5.94;95.57;99900.13;8425820;27;20040;-56
2023/04/14 00:56:11;;;;;;;5.05;2.17;;;;;;;5.57;95.92;99890.69;8380548;28;20041;-56
2023/04/14 01:00:13;;;;;;;9.48;2.47;;;;;;;5.44;98.18;99906.06;8372004;28;20039;-56
2023/04/14 01:04:16;;;;;;;3.75;2.13;;;;;;;5.30;99.04;99911.66;8393882;28;20037;-56
2023/04/14 01:08:18;;;;;;;5.90;2.38;;;;;;;5.08;99.82;99914.34;8393967;28;20048;-55
2023/04/14 01:12:44;;;;;;;5.90;2.33;;;;;;;5.10;100.00;99917.78;8393778;28;20044;-55
2023/04/14 01:16:48;;;;;;;12.07;3.47;;;;;;;5.28;100.00;99910.94;8393346;28;20080;-56
2023/04/14 01:20:55;;;;;;;8.37;2.93;;;;;;;5.32;100.00;99917.75;8396165;27;20044;-56
2023/04/14 01:25:30;;;;;;;16.15;3.60;;;;;;;5.32;100.00;99923.13;8426721;27;20492;-56
2023/04/14 01:29:59;;;;;;;8.43;2.97;;;;;;;5.36;100.00;99932.63;8356047;28;20041;-56
2023/04/14 01:34:28;;;;;;;9.77;2.78;;;;;;;5.26;100.00;99920.94;8357488;28;20037;-56
2023/04/14 01:38:33;;;;;;;8.07;2.63;;;;;;;5.22;99.98;99924.84;8359885;28;20413;-56
2023/04/14 01:42:36;;;;;;;7.40;2.78;;;;;;;5.15;100.00;99931.63;8359603;28;20039;-56
2023/04/14 01:46:40;;;;;;;6.65;3.03;;;;;;;5.04;100.00;99945.03;8359299;28;20094;-56
2023/04/14 01:50:42;;;;;;;8.82;2.90;;;;;;;5.16;100.00;99944.06;8364856;27;20047;-56
2023/04/14 01:54:45;;;;;;;8.63;3.10;;;;;;;5.23;99.47;99939.94;8408862;27;20060;-56
2023/04/14 01:58:48;;;;;;;8.35;2.58;;;;;;;5.19;99.47;99941.16;8392571;28;20489;-56
2023/04/14 02:02:51;;;;;;;9.77;2.50;;;;;;;5.16;99.31;99938.72;8391798;27;20121;-56
2023/04/14 02:06:54;;;;;;;10.13;2.67;;;;;;;5.14;98.84;99941.50;8385701;28;20112;-57
2023/04/14 02:10:56;;;;;;;5.82;2.70;;;;;;;5.25;98.90;99929.97;8386142;28;20040;-56
2023/04/14 02:15:00;;;;;;;6.22;2.80;;;;;;;5.12;98.09;99932.75;8391492;28;20482;-56
2023/04/14 02:19:03;;;;;;;5.18;2.17;;;;;;;4.94;98.69;99938.69;8391105;28;20048;-56
2023/04/14 02:23:03;;;;;;;5.75;2.40;;;;;;;4.72;100.00;99939.50;8412956;27;20036;-56
2023/04/14 02:27:12;;;;;;;5.85;2.90;;;;;;;4.66;100.00;99939.13;8458191;27;20028;-56
2023/04/14 02:31:20;;;;;;;9.30;2.42;;;;;;;4.61;100.00;99939.47;8423535;27;20496;-57
2023/04/14 02:35:26;;;;;;;8.45;2.67;;;;;;;4.60;100.00;99955.66;8423592;27;20063;-57
2023/04/14 02:39:35;;;;;;;6.15;2.55;;;;;;;4.47;100.00;99962.88;8424821;27;20551;-56
2023/04/14 02:43:46;;;;;;;7.70;2.35;;;;;;;4.55;100.00;99957.81;8424365;27;20043;-57
2023/04/14 02:47:52;;;;;;;6.32;2.60;;;;;;;4.65;100.00;99965.03;8400943;27;20044;-56
2023/04/14 02:51:54;;;;;;;6.28;2.53;;;;;;;4.62;100.00;99964.41;8400983;27;20036;-63
2023/04/14 02:55:57;;;;;;;7.28;2.63;;;;;;;4.58;100.00;99962.94;8390129;28;20519;-62
2023/04/14 03:00:02;;;;;;;9.45;2.78;;;;;;;4.49;100.00;99959.16;8390737;28;20041;-56
2023/04/14 03:04:07;;;;;;;6.75;2.40;;;;;;;4.48;100.00;99967.28;8388078;27;20064;-56
2023/04/14 03:08:11;;;;;;;5.47;2.55;;;;;;;4.46;100.00;99959.38;8390640;28;20040;-56
2023/04/14 03:12:15;;;;;;;6.13;2.28;;;;;;;4.42;100.00;99957.03;8390071;28;20049;-57
2023/04/14 03:16:19;;;;;;;5.72;2.75;;;;;;;4.41;100.00;99949.97;8390426;28;20391;-56
2023/04/14 03:20:22;;;;;;;;;;;;;;;4.23;100.00;99957.56;8388916;28;20044;-57
2023/04/14 03:24:29;;;;;;;5.53;2.78;;;;;;;4.21;100.00;99958.66;8422724;27;20257;-57
2023/04/14 03:28:34;;;;;;;8.85;2.67;;;;;;;4.22;100.00;99955.00;8419804;27;20036;-57
2023/04/14 03:32:40;;;;;;;;;;;;;;;4.14;100.00;99958.25;8422671;27;20036;-57
2023/04/14 03:36:42;;;;;;;7.70;3.22;;;;;;;4.12;100.00;99964.69;8455847;27;19927;-57
2023/04/14 03:40:46;;;;;;;7.82;3.20;;;;;;;3.86;100.00;99964.78;8422083;27;20089;-56
2023/04/14 03:44:52;;;;;;;7.10;2.50;;;;;;;3.80;100.00;99965.22;8424737;27;20232;-56
2023/04/14 03:48:58;;;;;;;5.13;2.28;;;;;;;3.83;100.00;99965.00;8430042;27;20093;-57
2023/04/14 03:53:00;;;;;;;3.78;2.88;;;;;;;3.89;100.00;99964.56;8423811;27;20040;-57
2023/04/14 03:57:05;;;;;;;8.18;2.95;;;;;;;4.05;100.00;99959.78;8396103;28;20044;-57
2023/04/14 04:01:07;;;;;;;9.07;2.42;;;;;;;3.95;100.00;99964.13;8396123;28;20052;-57
2023/04/14 04:05:09;;;;;;;6.30;2.58;;;;;;;3.90;100.00;99955.56;8395348;28;20044;-56
2023/04/14 04:09:13;;;;;;;8.13;2.65;;;;;;;4.02;100.00;99960.00;8395813;28;20542;-56
2023/04/14 04:13:16;;;;;;;9.50;2.97;;;;;;;4.03;100.00;99953.69;8395105;28;20127;-57
2023/04/14 04:17:22;;;;;;;9.70;2.80;;;;;;;3.93;100.00;99960.69;8395416;28;20524;-57
2023/04/14 04:21:26;;;;;;;8.10;2.63;;;;;;;3.93;100.00;99966.03;8403394;27;20035;-56
2023/04/14 04:25:28;;;;;;;9.18;3.25;;;;;;;3.88;100.00;99978.88;8427237;27;20484;-57
2023/04/14 04:29:37;;;;;;;8.63;2.75;;;;;;;3.88;100.00;99983.38;8428861;27;20407;-57
2023/04/14 04:33:40;;;;;;;7.53;3.05;;;;;;;3.89;100.00;99975.25;8428397;27;20492;-57
2023/04/14 04:37:42;;;;;;;6.82;2.65;;;;;;;3.96;100.00;99976.50;8427190;27;20040;-56
2023/04/14 04:41:44;;;;;;;7.75;3.38;;;;;;;3.88;100.00;99978.88;8428514;27;20385;-57
2023/04/14 04:46:25;;;;;;;10.00;2.70;;;;;;;3.89;100.00;99985.94;8427939;27;20028;-57
2023/04/14 04:50:26;;;;;;;9.32;2.63;;;;;;;3.88;100.00;99986.91;8425741;27;20036;-57
2023/04/14 04:54:27;;;;;;;14.00;2.50;;;;;;;3.92;100.00;99999.09;8413405;27;20086;-56
2023/04/14 04:58:27;;;;;;;11.30;3.05;;;;;;;4.05;100.00;99989.22;8393707;28;20493;-57
2023/04/14 05:02:28;;;;;;;7.30;3.10;;;;;;;4.15;100.00;99991.22;8392749;28;20040;-56
2023/04/14 05:06:28;;;;;;;7.47;2.50;;;;;;;4.31;100.00;99991.78;8394103;28;20123;-57
2023/04/14 05:10:28;;;;;;;11.18;2.58;;;;;;;4.23;100.00;99992.34;8389261;28;20037;-58
2023/04/14 05:14:29;;;;;;;6.97;3.35;;;;;;;4.24;99.84;99990.53;8381967;28;20127;-57
2023/04/14 05:18:30;;;;;;;9.88;3.05;;;;;;;4.23;100.00;99994.16;8385560;28;20044;-57
2023/04/14 05:22:31;;;;;;;7.82;2.63;;;;;;;4.35;99.05;99999.44;8404333;27;20047;-57
2023/04/14 05:26:32;;;;;;;2.53;2.05;;;;;;;4.42;99.36;100010.56;8420906;28;20040;-57
2023/04/14 05:30:32;;;;;;;5.25;3.05;;;;;;;4.41;99.46;100003.47;8426977;28;20032;-57
2023/04/14 05:34:33;;;;;;;10.32;3.53;;;;;;;4.72;99.61;100002.88;8409476;28;20045;-57
2023/04/14 05:38:38;;;;;;;8.48;3.45;;;;;;;4.99;97.85;99985.56;8388612;28;20036;-57
2023/04/14 05:42:40;;;;;;;5.55;3.05;;;;;;;5.28;97.28;99994.03;8385036;28;20033;-57
2023/04/14 05:46:41;;;;;;;11.90;2.95;;;;;;;5.47;96.52;100000.50;8413929;27;20757;-62
2023/04/14 05:50:41;;;;;;;5.32;2.60;;;;;;;5.58;95.91;99999.66;8391785;27;20380;-62
2023/04/14 05:54:42;;;;;;;4.88;2.95;;;;;;;5.70;95.44;100012.91;8378973;28;20045;-62
2023/04/14 05:58:42;;;;;;;6.20;2.35;;;;;;;5.89;94.61;100009.66;8386115;28;20060;-62
2023/04/14 06:02:43;;;;;;;8.68;2.80;;;;;;;6.04;95.00;100008.41;8388661;28;20353;-62
2023/04/14 06:06:44;;;;;;;9.63;2.83;;;;;;;6.23;93.55;100005.06;8372534;28;20040;-62
2023/04/14 06:10:44;;;;;;;11.25;2.92;;;;;;;6.43;93.56;100015.03;8379455;28;20090;-62
2023/04/14 06:14:45;;;;;;;6.70;3.13;;;;;;;6.51;93.50;100010.72;8377163;28;20094;-62
2023/04/14 06:18:46;;;;;;;5.28;2.65;;;;;;;6.74;92.86;99996.22;8383462;28;20044;-62
2023/04/14 06:22:46;;;;;;;8.88;3.03;;;;;;;6.92;92.76;100002.72;8379317;27;20033;-62
2023/04/14 06:26:47;;;;;;;8.63;2.83;;;;;;;7.29;91.16;100005.81;8388447;28;20047;-62
2023/04/14 06:30:47;;;;;;;10.25;2.47;;;;;;;7.39;89.65;99991.44;8389054;28;20182;-62
2023/04/14 06:34:48;;;;;;;7.72;3.55;;;;;;;7.54;90.74;99982.00;8376546;28;20071;-62
2023/04/14 06:38:48;;;;;;;14.15;3.47;;;;;;;7.61;90.12;99980.50;8374769;28;20124;-62
2023/04/14 06:42:49;;;;;;;5.65;2.90;;;;;;;8.08;91.38;99984.31;8369470;28;20051;-62
2023/04/14 06:46:49;;;;;;;8.65;2.90;;;;;;;8.20;88.29;99985.91;8379565;28;20044;-61
2023/04/14 06:50:53;;;;;;;8.75;2.85;;;;;;;8.76;89.12;99986.16;8405199;27;20036;-62
2023/04/14 06:54:53;;;;;;;10.75;3.20;;;;;;;9.25;87.49;99983.25;8386185;27;20049;-62
2023/04/14 06:58:54;;;;;;;8.27;2.70;;;;;;;9.29;85.77;99973.88;8384844;28;20051;-61
2023/04/14 07:02:54;;;;;;;5.70;2.30;;;;;;;9.48;85.42;99963.00;8400505;28;20400;-61
2023/04/14 07:07:00;;;;;;;15.13;5.30;;;;;;;9.65;84.31;99959.56;8385120;28;20049;-61
2023/04/14 07:11:04;;;;;;;9.40;2.90;;;;;;;10.00;86.34;99959.66;8385547;28;20041;-60
2023/04/14 07:15:05;;;;;;;9.43;3.00;;;;;;;10.38;85.42;99959.47;8403541;28;20040;-60
2023/04/14 07:19:06;;;;;;;7.80;2.20;;;;;;;10.63;83.99;99953.28;8377705;28;20040;-56
2023/04/14 07:23:06;;;;;;;9.63;3.78;;;;;;;10.62;82.70;99948.03;8384209;27;20512;-57
2023/04/14 07:27:13;;;;;;;12.30;2.72;;;;;;;11.03;82.06;99944.66;8385287;28;20408;-56
2023/04/14 07:31:14;;;;;;;5.93;2.75;;;;;;;11.20;82.88;99958.16;8354964;28;20048;-56
2023/04/14 07:35:14;;;;;;;8.15;2.80;;;;;;;11.37;83.18;99949.16;8383484;28;20433;-56
2023/04/14 07:39:15;;;;;;;8.35;2.70;;;;;;;11.35;81.47;99940.31;8354527;28;20068;-56
2023/04/14 07:43:16;;;;;;;9.40;3.28;;;;;;;11.41;81.53;99945.09;8354381;28;20581;-56
2023/04/14 07:47:16;;;;;;;7.10;2.88;;;;;;;11.70;82.65;99940.25;8356828;28;20135;-56
2023/04/14 07:51:17;;;;;;;10.00;3.08;;;;;;;12.24;78.57;99938.06;8372051;27;20036;-56
2023/04/14 07:55:17;;;;;;;7.63;2.45;;;;;;;12.34;78.15;99934.19;8401128;27;20041;-56
2023/04/14 07:59:18;;;;;;;6.38;2.58;;;;;;;12.56;77.24;99933.56;8389297;28;20045;-60
2023/04/14 08:03:18;;;;;;;5.00;2.13;;;;;;;12.90;76.40;99919.84;8389131;28;20055;-56
2023/04/14 08:07:19;;;;;;;5.38;2.15;;;;;;;12.98;73.50;99927.97;8388820;28;20413;-56
2023/04/14 08:11:19;;;;;;;5.68;2.35;;;;;;;13.04;75.27;99919.19;8389303;28;20048;-56
2023/04/14 08:15:20;;;;;;;9.18;2.58;;;;;;;12.89;74.71;99923.56;8388450;28;20115;-56
2023/04/14 08:19:21;;;;;;;8.02;2.28;;;;;;;13.09;74.31;99927.69;8389044;28;20514;-56
2023/04/14 08:23:21;;;;;;;5.78;2.47;;;;;;;13.34;74.37;99918.47;8412397;27;20036;-56
2023/04/14 08:27:22;;;;;;;7.22;2.08;;;;;;;13.37;72.56;99918.13;8450984;27;20062;-56
2023/04/14 08:31:23;;;;;;;10.27;2.17;;;;;;;13.17;72.54;99916.78;8433015;27;20316;-56
2023/04/14 08:35:24;;;;;;;10.48;2.30;;;;;;;13.29;71.27;99912.69;8427490;27;20098;-56
2023/04/14 08:39:25;;;;;;;13.57;2.05;;;;;;;13.41;70.19;99904.03;8427828;27;20089;-56
2023/04/14 08:43:27;;;;;;;5.20;2.28;;;;;;;13.66;68.91;99893.94;8427653;27;20062;-56
2023/04/14 08:47:32;;;;;;;9.65;1.67;;;;;;;13.62;67.65;99895.31;8427623;27;20074;-57
2023/04/14 08:51:36;;;;;;;9.50;2.15;;;;;;;13.94;66.41;99900.63;8425057;27;20039;-56
2023/04/14 08:55:40;;;;;;;6.18;1.90;;;;;;;13.94;67.12;99907.91;8402291;28;20513;-57
2023/04/14 08:59:41;;;;;;;9.35;1.80;;;;;;;14.18;66.02;99895.03;8394052;28;20040;-56
2023/04/14 09:03:42;;;;;;;8.43;2.17;;;;;;;14.22;65.03;99907.28;8393928;28;20043;-56
2023/04/14 09:07:43;;;;;;;8.10;1.50;;;;;;;14.14;63.87;99907.31;8408816;28;20065;-56
2023/04/14 09:11:44;;;;;;;9.25;1.50;;;;;;;14.21;62.83;99902.00;8393803;28;20063;-56
2023/04/14 09:15:44;;;;;;;19.80;2.33;;;;;;;14.49;61.87;99893.16;8393606;28;20040;-56
2023/04/14 09:19:46;;;;;;;8.13;1.50;;;;;;;14.53;62.08;99880.91;8393449;28;20044;-56
2023/04/14 09:23:47;;;;;;;8.38;1.50;;;;;;;15.11;60.45;99881.09;8420906;27;20530;-56
2023/04/14 09:27:48;;;;;;;5.50;1.50;;;;;;;15.15;61.93;99887.00;8427193;27;20492;-56
2023/04/14 09:31:49;;;;;;;7.07;1.30;;;;;;;15.51;59.17;99877.97;8426342;27;20123;-56
2023/04/14 09:35:51;;;;;;;8.45;1.40;;;;;;;15.60;59.57;99865.09;8426617;27;20058;-56
2023/04/14 09:39:54;;;;;;;9.98;1.90;;;;;;;16.70;57.46;99875.66;8426398;27;20043;-59
2023/04/14 09:43:54;;;;;;;9.23;1.40;;;;;;;18.45;53.67;99870.50;8425701;27;20036;-59
2023/04/14 09:48:05;;;;;;;6.35;1.48;;;;;;;19.36;50.33;99867.00;8426031;27;20043;-59
2023/04/14 09:52:07;;;;;;;5.68;1.42;;;;;;;19.62;50.98;99874.34;8423745;27;20042;-58
2023/04/14 09:56:10;;;;;;;9.45;1.40;;;;;;;19.63;49.09;99867.78;8397741;27;20043;-59
2023/04/14 10:00:21;;;;;;;6.47;1.52;;;;;;;19.59;48.64;99869.28;8392154;28;20508;-60
2023/04/14 10:04:27;;;;;;;4.38;1.70;;;;;;;19.69;49.84;99861.44;8391444;28;20039;-60
2023/04/14 10:08:36;;;;;;;7.55;2.20;;;;;;;19.94;47.87;99867.94;8392283;28;20036;-60
2023/04/14 10:12:36;;;;;;;6.22;1.30;;;;;;;20.43;47.90;99858.00;8391623;28;20044;-59
2023/04/14 10:16:37;;;;;;;3.30;1.10;;;;;;;20.58;47.16;99846.72;8391767;28;20068;-60
2023/04/14 10:20:38;;;;;;;5.50;1.40;;;;;;;20.46;47.99;99845.75;8393003;27;20093;-59
2023/04/14 10:24:39;;;;;;;7.88;1.33;;;;;;;20.54;47.98;99842.72;8424894;27;20039;-59
2023/04/14 10:28:44;;;;;;;7.95;2.13;;;;;;;21.00;47.67;99843.25;8424983;27;20032;-60
2023/04/14 10:32:46;;;;;;;;;;;;;;;21.47;45.57;99828.84;8425045;27;20089;-60
2023/04/14 10:36:47;;;;;;;9.95;1.50;;;;;;;21.73;45.83;99820.31;8424538;27;20014;-61
2023/04/14 10:40:51;;;;;;;6.95;1.92;;;;;;;21.06;46.65;99821.22;8424909;27;20039;-61
2023/04/14 10:45:07;;;;;;;10.37;1.93;;;;;;;21.15;46.00;99813.53;8422402;27;20051;-61
2023/04/14 10:49:11;;;;;;;6.88;1.67;;;;;;;20.55;47.31;99812.28;8423891;27;20047;-60
2023/04/14 10:53:11;;;;;;;4.00;1.13;;;;;;;21.59;45.68;99795.94;8418163;27;20048;-60
2023/04/14 10:57:14;;;;;;;5.72;1.15;;;;;;;22.23;44.00;99797.03;8390353;28;20097;-61
2023/04/14 11:01:31;;;;;;;8.02;1.35;;;;;;;22.13;44.90;99788.50;8390856;28;20040;-61
2023/04/14 11:05:33;;;;;;;25.35;2.38;;;;;;;21.99;43.39;99778.72;8390498;28;20058;-61
2023/04/14 11:09:37;;;;;;;3.83;1.30;;;;;;;21.98;43.79;99766.03;8405408;28;20037;-60
2023/04/14 11:13:37;;;;;;;5.18;1.38;;;;;;;22.91;42.38;99759.75;8389654;28;20056;-61
2023/04/14 11:17:39;;;;;;;3.88;1.40;;;;;;;22.94;41.56;99767.53;8390371;28;20574;-60
2023/04/14 11:21:49;;;;;;;3.08;0.70;;;;;;;22.50;41.88;99765.31;8399801;27;20043;-61
2023/04/14 11:25:50;;;;;;;4.22;1.00;;;;;;;22.80;40.88;99749.56;8423756;27;20561;-61
2023/04/14 11:29:53;;;;;;;4.15;1.30;;;;;;;23.25;41.72;99757.25;8405528;27;20128;-61
2023/04/14 11:33:55;;;;;;;3.30;1.23;;;;;;;24.19;40.38;99758.53;8423317;27;20417;-61
2023/04/14 11:37:58;;;;;;;6.22;1.25;;;;;;;23.72;40.26;99753.38;8423055;27;20035;-61
2023/04/14 11:41:59;;;;;;;6.07;1.23;;;;;;;23.40;40.53;99750.19;8421272;27;20032;-61
2023/04/14 11:46:00;;;;;;;3.40;1.00;;;;;;;23.43;39.19;99743.34;8422936;27;20032;-60
2023/04/14 11:50:04;;;;;;;3.28;1.15;;;;;;;24.07;40.81;99724.59;8423397;27;20059;-60
2023/04/14 11:54:04;;;;;;;3.45;0.95;;;;;;;24.48;38.73;99737.19;8405859;27;20574;-61
2023/04/14 11:58:04;;;;;;;5.93;1.20;;;;;;;23.94;40.21;99735.06;8377353;28;20128;-61
2023/04/14 12:02:14;;;;;;;2.92;1.20;;;;;;;22.41;40.45;99728.13;8384432;28;20062;-60
2023/04/14 12:06:14;;;;;;;4.57;1.30;;;;;;;20.55;41.70;99723.56;8385200;28;20041;-61
2023/04/14 12:10:15;;;;;;;3.22;0.95;;;;;;;19.11;44.32;99724.28;8402123;28;20036;-60
2023/04/14 12:14:15;;;;;;;4.45;0.80;;;;;;;18.81;45.32;99723.09;8394001;28;20523;-61
2023/04/14 12:18:16;;;;;;;6.13;1.27;;;;;;;18.57;45.20;99721.00;8395072;28;20075;-62
2023/04/14 12:22:28;;;;;;;6.32;0.80;;;;;;;19.12;45.66;99717.75;8393778;28;20075;-61
2023/04/14 12:26:29;;;;;;;2.72;0.82;;;;;;;18.73;44.06;99695.91;8396754;28;20044;-59
2023/04/14 12:30:29;;;;;;;4.20;0.98;;;;;;;18.01;45.19;99714.19;8428705;28;20040;-62
2023/04/14 12:34:30;;;;;;;3.20;0.80;;;;;;;17.14;46.51;99712.38;8412544;28;20039;-61
2023/04/14 12:38:31;;;;;;;3.13;1.10;;;;;;;17.25;48.10;99703.59;8427955;28;20040;-56
2023/04/14 12:42:50;;;;;;;5.28;1.15;;;;;;;17.75;46.56;99686.78;8428384;28;20821;-56
2023/04/14 12:46:52;;;;;;;2.88;0.88;;;;;;;18.06;45.91;99702.63;8428044;28;20039;-56
2023/04/14 12:51:06;;;;;;;4.82;0.90;;;;;;;17.79;44.45;99699.00;8426155;27;20453;-56
2023/04/14 12:55:17;;;;;;;5.18;0.85;;;;;;;17.48;46.38;99685.84;8407082;27;20045;-56
2023/04/14 12:59:18;;;;;;;11.25;1.20;;;;;;;17.58;48.35;99680.00;8394405;28;20040;-56
2023/04/14 13:03:18;;;;;;;4.35;1.25;;;;;;;17.68;48.96;99674.97;8408659;28;20056;-56
2023/04/14 13:07:19;;;;;;;4.35;1.10;;;;;;;17.93;46.65;99678.00;8393691;28;20078;-56
2023/04/14 13:11:22;;;;;;;5.95;1.30;;;;;;;18.23;46.98;99680.13;8393400;28;20036;-56
2023/04/14 13:15:22;;;;;;;5.07;0.80;;;;;;;17.85;46.64;99676.28;8393379;28;20052;-56
2023/04/14 13:19:23;;;;;;;4.33;1.10;;;;;;;17.41;46.85;99664.97;8392611;28;20497;-56
2023/04/14 13:23:23;;;;;;;4.07;1.42;;;;;;;17.47;48.39;99658.72;8417342;27;20343;-56
2023/04/14 13:27:24;;;;;;;5.00;0.85;;;;;;;17.83;49.41;99659.25;8426693;27;20063;-56
2023/04/14 13:31:24;;;;;;;2.17;0.80;;;;;;;18.33;48.39;99664.09;8426409;27;20043;-56
2023/04/14 13:35:25;;;;;;;2.10;0.90;;;;;;;17.81;46.92;99655.88;8425993;27;20115;-56
2023/04/14 13:39:26;;;;;;;6.43;0.90;;;;;;;17.43;48.96;99654.72;8426352;27;20064;-55
2023/04/14 13:43:26;;;;;;;3.75;1.00;;;;;;;17.46;47.56;99651.59;8426078;27;20043;-56
2023/04/14 13:47:27;;;;;;;4.90;1.05;;;;;;;17.44;46.42;99656.41;8426115;27;20043;-56
2023/04/14 13:51:27;;;;;;;5.88;1.25;;;;;;;17.40;46.83;99652.38;8417882;27;20036;-56
2023/04/14 13:55:28;;;;;;;3.60;0.85;;;;;;;17.41;46.61;99651.31;8392092;28;20041;-55
2023/04/14 13:59:28;;;;;;;5.72;1.20;;;;;;;17.36;47.04;99645.66;8407458;28;20039;-56
2023/04/14 14:03:29;;;;;;;5.57;0.65;;;;;;;17.30;47.06;99644.56;8391816;28;20097;-55
2023/04/14 14:07:30;;;;;;;3.90;0.60;;;;;;;17.40;46.65;99633.25;8391737;28;20036;-56
2023/04/14 14:11:31;;;;;;;3.35;0.70;;;;;;;17.39;48.80;99631.56;8391344;28;20115;-56
2023/04/14 14:15:31;;;;;;;4.05;0.60;;;;;;;17.77;49.01;99630.00;8391365;28;20472;-56
2023/04/14 14:19:32;;;;;;;3.55;1.10;;;;;;;17.77;47.75;99629.16;8390926;28;20052;-56
2023/04/14 14:23:32;;;;;;;3.85;0.95;;;;;;;17.66;45.40;99632.50;8416977;27;20040;-60
2023/04/14 14:27:33;;;;;;;2.95;0.88;;;;;;;17.51;46.27;99630.78;8424597;27;20044;-61
2023/04/14 14:31:34;;;;;;;4.38;0.90;;;;;;;17.53;48.19;99628.69;8456348;27;20039;-61
2023/04/14 14:35:34;;;;;;;4.57;1.00;;;;;;;17.54;47.64;99629.56;8424541;27;20496;-61
2023/04/14 14:39:35;;;;;;;4.97;0.90;;;;;;;17.49;46.80;99615.66;8424850;27;20521;-61
2023/04/14 14:43:36;;;;;;;5.15;0.95;;;;;;;17.70;48.31;99622.84;8424004;27;20043;-61
2023/04/14 14:47:37;;;;;;;6.43;1.02;;;;;;;17.84;48.32;99619.91;8456794;27;20488;-61
2023/04/14 14:51:38;;;;;;;2.85;1.00;;;;;;;17.60;46.08;99606.84;8421743;27;20519;-61
2023/04/14 14:55:39;;;;;;;4.88;1.00;;;;;;;17.13;47.70;99609.63;8399790;27;20059;-61
2023/04/14 14:59:40;;;;;;;6.45;1.08;;;;;;;17.06;47.25;99606.03;8391060;28;20166;-61
2023/04/14 15:03:40;;;;;;;2.83;0.82;;;;;;;17.34;47.77;99604.00;8389675;28;20044;-61
2023/04/14 15:07:41;;;;;;;4.25;0.90;;;;;;;17.18;47.29;99609.84;8389944;28;20086;-56
2023/04/14 15:11:41;;;;;;;3.38;1.02;;;;;;;17.06;46.88;99603.28;8390104;28;20438;-56
2023/04/14 15:15:42;;;;;;;2.08;0.77;;;;;;;17.24;46.51;99595.38;8390355;28;20048;-60
2023/04/14 15:19:43;;;;;;;5.78;0.90;;;;;;;17.15;46.52;99597.47;8387717;28;20123;-56
2023/04/14 15:23:44;;;;;;;4.95;0.98;;;;;;;17.02;45.52;99602.03;8402338;27;20032;-56
2023/04/14 15:27:46;;;;;;;4.63;0.82;;;;;;;17.02;47.25;99591.09;8415885;27;20094;-56
2023/04/14 15:31:46;;;;;;;5.22;1.05;;;;;;;16.82;46.94;99584.69;8374109;28;20045;-56
2023/04/14 15:35:47;;;;;;;4.68;1.38;;;;;;;16.94;47.56;99588.53;8354522;28;20083;-56
2023/04/14 15:39:47;;;;;;;3.67;0.70;;;;;;;17.12;47.83;99591.56;8376683;28;20037;-56
2023/04/14 15:43:48;;;;;;;4.72;0.82;;;;;;;17.10;48.65;99582.72;8362861;28;20112;-56
2023/04/14 15:47:49;;;;;;;3.05;0.80;;;;;;;16.79;46.69;99591.41;8368537;28;20048;-56
2023/04/14 15:51:49;;;;;;;5.63;0.80;;;;;;;16.58;47.77;99587.94;8401182;27;20505;-56
2023/04/14 15:55:50;;;;;;;4.22;0.75;;;;;;;16.67;49.10;99584.00;8395497;28;20124;-56
2023/04/14 15:59:50;;;;;;;3.53;1.05;;;;;;;16.50;47.40;99588.13;8396895;28;20041;-62
2023/04/14 16:03:51;;;;;;;4.32;0.90;;;;;;;16.46;48.44;99584.09;8391810;28;20068;-62
2023/04/14 16:07:51;;;;;;;4.40;0.82;;;;;;;16.49;48.70;99584.53;8394610;28;20040;-62
2023/04/14 16:11:52;;;;;;;2.45;0.80;;;;;;;16.41;49.67;99581.91;8393317;28;20037;-62
2023/04/14 16:15:52;;;;;;;3.78;0.90;;;;;;;16.47;48.62;99591.25;8405165;28;20066;-62
2023/04/14 16:19:53;;;;;;;4.05;0.80;;;;;;;16.64;46.69;99584.41;8428517;27;20048;-56
2023/04/14 16:23:53;;;;;;;2.67;0.63;;;;;;;16.79;46.77;99590.56;8448758;27;20047;-56
2023/04/14 16:27:53;;;;;;;3.03;0.65;;;;;;;17.02;45.45;99585.66;8427346;27;20180;-56
2023/04/14 16:31:54;;;;;;;2.05;0.50;;;;;;;16.90;44.83;99587.28;8427677;27;20071;-56
2023/04/14 16:35:55;;;;;;;4.32;0.80;;;;;;;16.85;45.44;99595.22;8427517;27;20044;-56
2023/04/14 16:39:56;;;;;;;2.35;0.68;;;;;;;16.75;46.33;99589.31;8427049;27;20399;-56
2023/04/14 16:43:57;;;;;;;4.45;0.70;;;;;;;16.72;47.25;99590.56;8427417;27;20044;-57
2023/04/14 16:47:58;;;;;;;3.25;0.70;;;;;;;16.64;45.64;99576.22;8401308;28;20630;-57
2023/04/14 16:51:59;;;;;;;4.15;0.70;;;;;;;16.59;46.55;99585.00;8380422;27;20384;-55
2023/04/14 16:56:02;;;;;;;1.45;0.43;;;;;;;16.53;47.40;99574.88;8378110;28;20035;-61
2023/04/14 17:00:03;;;;;;;3.60;0.80;;;;;;;16.48;47.94;99573.81;8382133;28;20110;-61
2023/04/14 17:04:04;;;;;;;3.50;0.73;;;;;;;16.41;47.64;99562.81;8390178;27;20749;-62
2023/04/14 17:08:04;;;;;;;3.90;1.08;;;;;;;16.30;48.18;99568.00;8390104;28;20083;-62
2023/04/14 17:12:05;;;;;;;3.55;0.80;;;;;;;16.15;49.12;99570.00;8386539;28;20049;-62
2023/04/14 17:16:07;;;;;;;5.38;0.80;;;;;;;16.15;48.28;99572.72;8378638;28;20127;-62
2023/04/14 17:20:09;;;;;;;1.35;0.50;;;;;;;16.04;48.60;99565.13;8381119;28;20086;-62
2023/04/14 17:24:10;;;;;;;3.80;0.80;;;;;;;15.96;49.08;99570.72;8366339;28;20523;-62
2023/04/14 17:28:10;;;;;;;2.33;0.80;;;;;;;15.95;47.75;99569.84;8398861;28;20097;-62
2023/04/14 17:32:11;;;;;;;2.88;1.42;;;;;;;15.88;48.29;99579.00;8384457;28;20040;-56
2023/04/14 17:36:13;;;;;;;3.50;0.80;;;;;;;15.82;49.17;99577.09;8385235;28;20059;-57
2023/04/14 17:40:14;;;;;;;2.20;0.82;;;;;;;15.65;49.94;99574.63;8397765;28;20048;-57
2023/04/14 17:44:15;;;;;;;2.88;0.57;;;;;;;15.79;49.61;99580.22;8365625;28;20072;-55
2023/04/14 17:48:16;;;;;;;2.10;0.50;;;;;;;15.73;50.00;99582.69;8352560;28;20474;-55
2023/04/14 17:52:18;;;;;;;1.92;0.50;;;;;;;15.60;50.77;99579.84;8395629;27;20100;-55
2023/04/14 17:56:18;;;;;;;4.50;0.88;;;;;;;15.55;51.42;99590.47;8364636;28;20045;-55
2023/04/14 18:00:19;;;;;;;3.70;0.90;;;;;;;15.33;52.78;99591.47;8367110;28;20623;-57
2023/04/14 18:04:20;;;;;;;4.53;0.88;;;;;;;15.33;52.41;99602.38;8380303;28;20585;-56
2023/04/14 18:08:20;;;;;;;2.40;0.70;;;;;;;15.15;52.50;99599.25;8383282;28;20044;-57
2023/04/14 18:12:24;;;;;;;1.92;0.65;;;;;;;15.12;52.47;99605.06;8381568;28;20068;-57
2023/04/14 18:16:25;;;;;;;4.13;0.70;;;;;;;14.86;53.35;99607.50;8386736;28;20040;-55
2023/04/14 18:20:25;;;;;;;4.90;0.82;;;;;;;14.32;58.27;99611.53;8383681;28;20048;-55
2023/04/14 18:24:26;;;;;;;32.53;2.13;;;;;;;14.06;58.59;99619.22;8392317;28;20048;-55
2023/04/14 18:28:27;;;;;;;29.15;1.63;;;;;;;13.58;60.93;99617.78;8385478;28;20493;-55
2023/04/14 18:32:30;;;;;;;10.82;1.00;;;;;;;13.49;60.43;99620.75;8385503;28;20090;-55
2023/04/14 18:36:31;;;;;;;3.75;0.93;;;;;;;13.22;60.06;99618.56;8344191;28;20516;-56
2023/04/14 18:40:36;;;;;;;10.43;1.13;;;;;;;12.91;60.99;99631.25;8354998;28;20043;-55
2023/04/14 18:44:37;;;;;;;2.85;0.65;;;;;;;13.12;58.93;99636.94;8353879;28;20537;-55
2023/04/14 18:48:38;;;;;;;5.32;1.25;;;;;;;12.87;62.07;99632.66;8353931;28;20394;-56
2023/04/14 18:52:38;;;;;;;2.67;1.02;;;;;;;12.64;63.05;99647.97;8388786;28;20044;-56
2023/04/14 18:56:39;;;;;;;2.08;0.88;;;;;;;12.56;61.89;99640.72;8360133;28;20037;-56
2023/04/14 19:00:39;;;;;;;7.78;1.00;;;;;;;12.43;63.30;99650.41;8354273;28;20068;-56
2023/04/14 19:04:40;;;;;;;4.75;0.80;;;;;;;12.37;62.68;99645.69;8353106;28;20037;-63